createdAt,value
2023-03-29T00:01:41.929Z,87.31
2023-03-29T00:04:10.116Z,87.47
2023-03-29T00:06:37.793Z,87.70
2023-03-29T00:09:05.873Z,87.75
2023-03-29T00:11:32.763Z,87.92
2023-03-29T00:13:59.328Z,87.48
2023-03-29T00:16:26.079Z,87.36
2023-03-29T00:18:52.571Z,87.90
2023-03-29T00:21:19.064Z,87.51
2023-03-29T00:23:45.739Z,87.14
2023-03-29T00:26:12.403Z,87.33
2023-03-29T00:28:38.945Z,87.52
2023-03-29T00:31:08.492Z,87.43
2023-03-29T00:33:35.121Z,87.47
2023-03-29T00:36:01.950Z,87.31
2023-03-29T00:38:28.710Z,87.37
2023-03-29T00:40:55.193Z,87.68
2023-03-29T00:43:21.781Z,87.69
2023-03-29T00:45:48.723Z,87.44
2023-03-29T00:48:22.213Z,87.34
2023-03-29T00:51:01.613Z,87.46
2023-03-29T00:53:38.479Z,87.21
2023-03-29T00:56:24.165Z,86.85
2023-03-29T00:59:11.693Z,86.77
2023-03-29T01:01:58.556Z,86.31
2023-03-29T01:04:37.588Z,86.42
2023-03-29T01:07:18.031Z,86.02
2023-03-29T01:09:52.763Z,86.35
2023-03-29T01:12:23.614Z,86.20
2023-03-29T01:15:08.785Z,86.16
2023-03-29T01:17:35.517Z,85.86
2023-03-29T01:20:14.185Z,85.53
2023-03-29T01:22:51.334Z,85.47
2023-03-29T01:25:48.875Z,85.33
2023-03-29T01:28:21.179Z,85.12
2023-03-29T01:31:07.282Z,85.01
2023-03-29T01:33:52.064Z,84.65
2023-03-29T01:36:24.916Z,84.56
2023-03-29T01:38:56.629Z,84.36
2023-03-29T01:41:35.246Z,84.12
2023-03-29T01:44:07.261Z,83.82
2023-03-29T01:46:52.354Z,83.93
2023-03-29T01:49:45.269Z,83.74
2023-03-29T01:52:27.455Z,84.01
2023-03-29T01:55:00.573Z,83.62
2023-03-29T01:57:27.322Z,83.91
2023-03-29T01:59:55.991Z,84.05
2023-03-29T02:02:27.792Z,83.56
2023-03-29T02:04:56.022Z,83.39
2023-03-29T02:07:26.706Z,83.51
2023-03-29T02:09:54.153Z,83.63
2023-03-29T02:12:21.237Z,84.13
2023-03-29T02:14:47.714Z,83.96
2023-03-29T02:17:22.524Z,84.06
2023-03-29T02:19:54.974Z,84.00
2023-03-29T02:22:28.774Z,84.12
2023-03-29T02:24:59.237Z,84.04
2023-03-29T02:27:29.083Z,84.35
2023-03-29T02:29:57.201Z,84.81
2023-03-29T02:32:35.553Z,84.56
2023-03-29T02:35:12.791Z,85.08
2023-03-29T02:37:44.136Z,85.43
2023-03-29T02:40:13.565Z,85.13
2023-03-29T02:42:43.197Z,85.25
2023-03-29T02:45:12.475Z,85.44
2023-03-29T02:47:45.228Z,85.27
2023-03-29T02:50:12.162Z,85.30
2023-03-29T02:52:48.673Z,85.32
2023-03-29T02:55:18.617Z,85.54
2023-03-29T02:57:45.511Z,85.57
2023-03-29T03:00:14.535Z,85.78
2023-03-29T03:02:41.878Z,86.28
2023-03-29T03:05:09.759Z,85.89
2023-03-29T03:07:36.333Z,86.26
2023-03-29T03:12:30.909Z,86.53
2023-03-29T03:14:58.303Z,86.18
2023-03-29T03:17:25.254Z,86.55
2023-03-29T03:19:53.134Z,86.79
2023-03-29T03:22:20.380Z,86.46
2023-03-29T03:24:47.138Z,86.89
2023-03-29T03:27:13.689Z,86.77
2023-03-29T03:29:41.418Z,86.93
2023-03-29T03:32:37.406Z,87.37
2023-03-29T03:35:22.737Z,87.28
2023-03-29T03:37:49.224Z,87.31
2023-03-29T03:40:17.463Z,87.63
2023-03-29T03:42:44.457Z,87.20
2023-03-29T03:45:12.242Z,87.33
2023-03-29T03:47:51.052Z,87.54
2023-03-29T03:50:34.335Z,87.58
2023-03-29T03:53:01.371Z,87.62
2023-03-29T03:55:40.991Z,87.80
2023-03-29T03:58:11.569Z,87.58
2023-03-29T04:00:38.437Z,88.04
2023-03-29T04:03:21.626Z,87.80
2023-03-29T04:05:48.692Z,87.56
2023-03-29T04:08:17.029Z,87.90
2023-03-29T04:11:04.579Z,87.72
2023-03-29T04:13:37.057Z,87.92
2023-03-29T04:16:27.696Z,88.04
2023-03-29T04:18:56.474Z,87.83
2023-03-29T04:21:23.981Z,87.93
2023-03-29T04:23:50.442Z,87.87
2023-03-29T04:26:18.014Z,87.81
2023-03-29T04:29:04.835Z,87.80
2023-03-29T04:31:45.936Z,87.77
2023-03-29T04:34:21.990Z,87.86
2023-03-29T04:36:53.225Z,87.78
2023-03-29T04:39:31.725Z,87.82
2023-03-29T04:41:58.591Z,87.52
2023-03-29T04:44:27.990Z,87.47
2023-03-29T04:46:56.852Z,87.29
2023-03-29T04:49:42.889Z,87.43
2023-03-29T04:52:19.140Z,86.92
2023-03-29T04:54:45.679Z,87.54
2023-03-29T04:57:20.468Z,87.55
2023-03-29T04:59:55.022Z,87.77
2023-03-29T05:02:40.105Z,87.80
2023-03-29T05:05:06.930Z,87.99
2023-03-29T05:07:33.467Z,87.87
2023-03-29T05:09:59.933Z,87.78
2023-03-29T05:12:26.842Z,87.69
2023-03-29T05:14:54.352Z,87.45
2023-03-29T05:17:26.680Z,87.74
2023-03-29T05:19:56.176Z,87.97
2023-03-29T05:22:24.906Z,87.67
2023-03-29T05:24:52.849Z,87.29
2023-03-29T05:27:22.749Z,87.21
2023-03-29T05:30:00.439Z,87.44
2023-03-29T05:32:47.821Z,87.52
2023-03-29T05:35:17.549Z,87.68
2023-03-29T05:37:47.144Z,87.16
2023-03-29T05:40:13.728Z,87.47
2023-03-29T05:43:12.066Z,87.34
2023-03-29T05:45:39.345Z,87.42
2023-03-29T05:48:06.262Z,87.19
2023-03-29T05:50:33.580Z,87.20
2023-03-29T05:53:00.438Z,87.70
2023-03-29T05:55:27.958Z,87.34
2023-03-29T05:57:54.525Z,87.38
2023-03-29T06:00:25.683Z,87.54
2023-03-29T06:03:13.580Z,87.45
2023-03-29T06:05:42.580Z,87.56
2023-03-29T06:08:09.897Z,87.38
2023-03-29T06:11:05.162Z,87.24
2023-03-29T06:13:55.363Z,86.96
2023-03-29T06:16:22.432Z,86.96
2023-03-29T06:18:49.087Z,87.04
2023-03-29T06:21:15.588Z,86.73
2023-03-29T06:23:42.625Z,86.86
2023-03-29T06:26:10.560Z,87.04
2023-03-29T06:28:37.783Z,87.12
2023-03-29T06:31:05.236Z,86.55
2023-03-29T06:33:38.028Z,86.53
2023-03-29T06:36:16.976Z,86.92
2023-03-29T06:38:45.853Z,86.79
2023-03-29T06:41:32.891Z,86.27
2023-03-29T06:44:22.423Z,86.71
2023-03-29T06:47:01.418Z,86.63
2023-03-29T06:49:28.088Z,86.76
2023-03-29T06:52:09.462Z,87.03
2023-03-29T06:54:36.106Z,87.03
2023-03-29T06:57:05.448Z,87.37
2023-03-29T06:59:34.524Z,87.65
2023-03-29T07:02:13.110Z,88.18
2023-03-29T07:05:01.367Z,88.43
2023-03-29T07:07:43.901Z,88.90
2023-03-29T07:10:32.961Z,89.02
2023-03-29T07:13:02.281Z,88.73
2023-03-29T07:15:29.466Z,88.48
2023-03-29T07:18:22.198Z,87.95
2023-03-29T07:20:49.183Z,87.85
2023-03-29T07:23:16.038Z,87.78
2023-03-29T07:25:44.703Z,87.95
2023-03-29T07:28:11.292Z,87.76
2023-03-29T07:30:38.449Z,87.03
2023-03-29T07:33:13.458Z,86.81
2023-03-29T07:35:47.793Z,86.58
2023-03-29T07:38:15.625Z,86.64
2023-03-29T07:40:47.327Z,86.60
2023-03-29T07:43:34.352Z,85.83
2023-03-29T07:46:04.815Z,85.64
2023-03-29T07:48:33.758Z,85.83
2023-03-29T07:51:05.169Z,85.29
2023-03-29T07:53:54.722Z,84.60
2023-03-29T07:56:47.762Z,84.73
2023-03-29T07:59:33.197Z,84.29
2023-03-29T08:02:07.389Z,84.17
2023-03-29T08:04:38.284Z,84.05
2023-03-29T08:07:27.963Z,84.07
2023-03-29T08:10:03.842Z,83.94
2023-03-29T08:13:00.850Z,83.39
2023-03-29T08:15:39.782Z,83.35
2023-03-29T08:18:18.158Z,83.58
2023-03-29T08:20:44.940Z,83.76
2023-03-29T08:23:11.443Z,83.19
2023-03-29T08:25:58.107Z,83.37
2023-03-29T08:28:25.962Z,83.88
2023-03-29T08:30:52.700Z,83.43
2023-03-29T08:33:19.702Z,83.42
2023-03-29T08:35:54.080Z,83.23
2023-03-29T08:38:27.736Z,82.53
2023-03-29T08:40:55.839Z,83.16
2023-03-29T08:43:46.821Z,82.67
2023-03-29T08:46:35.865Z,82.93
2023-03-29T08:49:22.381Z,82.52
2023-03-29T08:51:56.563Z,82.28
2023-03-29T08:54:29.810Z,82.58
2023-03-29T08:57:28.069Z,83.26
2023-03-29T09:00:06.666Z,82.48
2023-03-29T09:02:37.500Z,82.65
2023-03-29T09:05:37.693Z,82.82
2023-03-29T09:08:21.213Z,82.40
2023-03-29T09:11:12.527Z,82.56
2023-03-29T09:13:59.348Z,81.93
2023-03-29T09:16:49.346Z,82.14
2023-03-29T09:19:37.792Z,82.41
2023-03-29T09:22:46.535Z,82.70
2023-03-29T09:25:29.211Z,82.80
2023-03-29T09:28:10.376Z,82.76
2023-03-29T09:31:15.356Z,82.43
2023-03-29T09:33:52.190Z,82.36
2023-03-29T09:36:28.418Z,82.34
2023-03-29T09:38:55.639Z,81.52
2023-03-29T09:41:42.609Z,81.61
2023-03-29T09:46:53.917Z,81.45
2023-03-29T09:49:31.275Z,81.66
2023-03-29T09:52:05.551Z,82.42
2023-03-29T09:54:32.703Z,81.09
2023-03-29T09:57:26.024Z,81.16
2023-03-29T09:59:52.988Z,80.90
2023-03-29T10:02:21.165Z,80.86
2023-03-29T10:05:00.546Z,80.85
2023-03-29T10:07:40.233Z,81.33
2023-03-29T10:10:10.373Z,81.37
2023-03-29T10:12:37.390Z,80.99
2023-03-29T10:15:05.868Z,80.74
2023-03-29T10:17:40.831Z,80.15
2023-03-29T10:20:12.982Z,79.68
2023-03-29T10:22:41.093Z,79.61
2023-03-29T10:25:17.409Z,80.01
2023-03-29T10:27:46.030Z,79.84
2023-03-29T10:30:20.195Z,79.18
2023-03-29T10:32:47.256Z,79.19
2023-03-29T10:35:33.191Z,79.24
2023-03-29T10:38:04.679Z,78.69
2023-03-29T10:40:34.208Z,79.17
2023-03-29T10:43:29.691Z,79.29
2023-03-29T10:46:05.161Z,80.37
2023-03-29T10:48:34.508Z,80.88
2023-03-29T10:51:02.553Z,80.73
2023-03-29T10:53:32.909Z,81.47
2023-03-29T10:56:29.870Z,82.15
2023-03-29T10:59:29.764Z,81.98
2023-03-29T11:02:18.226Z,82.87
2023-03-29T11:04:49.085Z,82.57
2023-03-29T11:07:15.467Z,82.54
2023-03-29T11:09:52.735Z,83.32
2023-03-29T11:12:28.373Z,83.25
2023-03-29T11:15:19.994Z,83.51
2023-03-29T11:18:16.030Z,84.07
2023-03-29T11:21:10.715Z,84.54
2023-03-29T11:23:41.467Z,85.24
2023-03-29T11:26:20.766Z,85.63
2023-03-29T11:29:02.568Z,85.15
2023-03-29T11:31:41.320Z,84.59
2023-03-29T11:34:35.242Z,84.58
2023-03-29T11:37:17.135Z,84.26
2023-03-29T11:40:10.552Z,82.92
2023-03-29T11:42:43.406Z,83.28
2023-03-29T11:45:16.658Z,83.63
2023-03-29T11:47:46.714Z,83.09
2023-03-29T11:50:25.320Z,82.46
2023-03-29T11:52:58.628Z,82.25
2023-03-29T11:55:30.362Z,81.28
2023-03-29T11:58:03.952Z,80.92
2023-03-29T12:00:37.462Z,81.31
2023-03-29T12:03:21.166Z,81.36
2023-03-29T12:05:58.950Z,81.15
2023-03-29T12:08:38.306Z,80.84
2023-03-29T12:11:27.371Z,81.43
2023-03-29T12:13:58.711Z,81.44
2023-03-29T12:16:48.895Z,81.72
2023-03-29T12:19:31.538Z,81.64
2023-03-29T12:22:00.978Z,81.18
2023-03-29T12:24:32.395Z,81.44
2023-03-29T12:27:20.165Z,82.33
2023-03-29T12:30:08.606Z,81.66
2023-03-29T12:33:15.802Z,81.55
2023-03-29T12:36:17.310Z,82.52
2023-03-29T12:39:05.304Z,82.52
2023-03-29T12:41:53.273Z,83.01
2023-03-29T12:44:39.589Z,83.24
2023-03-29T12:47:25.289Z,83.81
2023-03-29T12:49:56.505Z,84.02
2023-03-29T12:52:34.219Z,84.02
2023-03-29T12:55:04.442Z,83.88
2023-03-29T12:57:44.928Z,84.02
2023-03-29T13:00:22.402Z,84.31
2023-03-29T13:03:19.966Z,83.71
2023-03-29T13:05:46.924Z,83.76
2023-03-29T13:08:26.098Z,83.29
2023-03-29T13:10:56.537Z,84.40
2023-03-29T13:13:40.241Z,83.76
2023-03-29T13:16:18.321Z,83.61
2023-03-29T13:19:06.645Z,83.53
2023-03-29T13:22:04.135Z,83.69
2023-03-29T13:24:49.336Z,82.80
2023-03-29T13:27:26.035Z,82.83
2023-03-29T13:30:15.577Z,81.99
2023-03-29T13:32:54.714Z,81.63
2023-03-29T13:35:36.903Z,81.69
2023-03-29T13:38:19.542Z,81.39
2023-03-29T13:40:52.796Z,81.75
2023-03-29T13:43:19.280Z,81.70
2023-03-29T13:46:04.241Z,81.81
2023-03-29T13:48:34.832Z,80.53
2023-03-29T13:51:21.767Z,80.69
2023-03-29T13:54:10.668Z,80.76
2023-03-29T13:56:54.995Z,80.80
2023-03-29T13:59:35.470Z,79.93
2023-03-29T14:02:04.580Z,80.30
2023-03-29T14:04:48.355Z,79.58
2023-03-29T14:07:15.413Z,79.23
2023-03-29T14:09:45.926Z,78.81
2023-03-29T14:12:15.234Z,79.44
2023-03-29T14:14:57.817Z,79.18
2023-03-29T14:17:25.772Z,79.15
2023-03-29T14:19:57.901Z,79.55
2023-03-29T14:22:24.603Z,79.21
2023-03-29T14:24:53.669Z,79.11
2023-03-29T14:27:21.441Z,79.87
2023-03-29T14:29:51.051Z,79.47
2023-03-29T14:32:27.378Z,79.45
2023-03-29T14:34:53.882Z,79.43
2023-03-29T14:37:26.426Z,79.18
2023-03-29T14:39:53.919Z,79.04
2023-03-29T14:42:25.277Z,79.07
2023-03-29T14:45:04.081Z,78.92
2023-03-29T14:47:32.958Z,78.71
2023-03-29T14:50:01.516Z,78.69
2023-03-29T14:52:30.421Z,78.34
2023-03-29T14:55:00.029Z,77.85
2023-03-29T14:57:32.551Z,77.52
2023-03-29T15:00:01.201Z,77.29
2023-03-29T15:02:30.731Z,77.11
2023-03-29T15:04:59.967Z,76.97
2023-03-29T15:07:28.280Z,76.85
2023-03-29T15:09:57.428Z,76.60
2023-03-29T15:12:24.714Z,76.90
2023-03-29T15:14:52.672Z,76.17
2023-03-29T15:17:36.003Z,75.69
2023-03-29T15:20:23.114Z,76.73
2023-03-29T15:23:07.624Z,76.41
2023-03-29T15:25:37.216Z,76.21
2023-03-29T15:28:04.219Z,75.20
2023-03-29T15:30:44.233Z,75.59
2023-03-29T15:33:24.950Z,75.08
2023-03-29T15:35:53.933Z,74.56
2023-03-29T15:38:27.523Z,74.18
2023-03-29T15:40:57.081Z,74.59
2023-03-29T15:43:24.448Z,73.81
2023-03-29T15:45:51.175Z,74.10
2023-03-29T15:48:25.710Z,74.33
2023-03-29T15:50:53.083Z,74.15
2023-03-29T15:53:23.618Z,74.52
2023-03-29T15:55:52.899Z,74.54
2023-03-29T15:58:25.667Z,74.84
2023-03-29T16:00:58.999Z,74.65
2023-03-29T16:03:27.240Z,74.78
2023-03-29T16:05:56.715Z,75.58
2023-03-29T16:08:24.969Z,75.29
2023-03-29T16:10:51.689Z,75.59
2023-03-29T16:13:18.171Z,74.83
2023-03-29T16:15:45.800Z,75.27
2023-03-29T16:18:12.253Z,75.51
2023-03-29T16:20:39.150Z,75.33
2023-03-29T16:23:09.693Z,75.82
2023-03-29T16:25:38.325Z,75.57
2023-03-29T16:28:05.492Z,76.34
2023-03-29T16:30:32.969Z,76.27
2023-03-29T16:32:59.571Z,76.25
2023-03-29T16:35:30.284Z,76.25
2023-03-29T16:37:56.939Z,76.42
2023-03-29T16:40:23.874Z,76.64
2023-03-29T16:42:51.250Z,76.92
2023-03-29T16:45:18.247Z,77.35
2023-03-29T16:47:44.856Z,77.43
2023-03-29T16:50:17.983Z,77.85
2023-03-29T16:52:45.198Z,78.03
2023-03-29T16:55:13.370Z,78.60
2023-03-29T16:57:40.136Z,78.75
2023-03-29T17:00:11.275Z,78.92
2023-03-29T17:02:37.799Z,78.79
2023-03-29T17:05:04.709Z,79.43
2023-03-29T17:07:31.189Z,79.19
2023-03-29T17:09:57.694Z,79.51
2023-03-29T17:12:24.340Z,79.75
2023-03-29T17:14:51.114Z,79.94
2023-03-29T17:17:17.606Z,80.27
2023-03-29T17:19:44.223Z,80.31
2023-03-29T17:22:10.685Z,80.63
2023-03-29T17:24:37.206Z,80.64
2023-03-29T17:27:03.814Z,80.12
2023-03-29T17:29:30.385Z,80.99
2023-03-29T17:31:56.839Z,81.17
2023-03-29T17:34:23.374Z,81.22
2023-03-29T17:36:53.165Z,81.25
2023-03-29T17:39:19.666Z,81.34
2023-03-29T17:41:47.291Z,81.48
2023-03-29T17:44:13.911Z,81.20
2023-03-29T17:46:40.598Z,81.66
2023-03-29T17:49:07.259Z,81.88
2023-03-29T17:51:33.738Z,81.83
2023-03-29T17:54:00.378Z,81.79
2023-03-29T17:56:26.845Z,82.09
2023-03-29T17:58:53.419Z,82.46
2023-03-29T18:01:19.962Z,82.35
2023-03-29T18:03:50.649Z,82.68
2023-03-29T18:06:20.125Z,82.89
2023-03-29T18:08:47.177Z,82.91
2023-03-29T18:11:16.718Z,83.08
2023-03-29T18:13:44.379Z,83.58
2023-03-29T18:16:11.346Z,83.51
2023-03-29T18:18:38.609Z,83.16
2023-03-29T18:21:06.904Z,83.59
2023-03-29T18:23:33.850Z,83.71
2023-03-29T18:26:04.324Z,83.98
2023-03-29T18:28:31.169Z,84.42
2023-03-29T18:30:58.066Z,84.31
2023-03-29T18:33:24.943Z,84.30
2023-03-29T18:35:51.855Z,84.94
2023-03-29T18:38:21.349Z,84.94
2023-03-29T18:40:48.676Z,85.29
2023-03-29T18:43:15.622Z,85.56
2023-03-29T18:45:43.702Z,85.87
2023-03-29T18:48:10.875Z,85.75
2023-03-29T18:50:38.639Z,85.76
2023-03-29T18:53:05.148Z,86.23
2023-03-29T18:55:31.647Z,86.30
2023-03-29T18:57:58.072Z,86.22
2023-03-29T19:00:25.062Z,86.09
2023-03-29T19:02:51.644Z,86.35
2023-03-29T19:05:18.341Z,86.68
2023-03-29T19:07:44.874Z,86.60
2023-03-29T19:10:12.157Z,86.60
2023-03-29T19:12:38.712Z,87.00
2023-03-29T19:15:05.823Z,87.43
2023-03-29T19:17:32.313Z,87.98
2023-03-29T19:19:59.247Z,87.87
2023-03-29T19:22:26.532Z,88.15
2023-03-29T19:24:53.083Z,88.66
2023-03-29T19:27:19.657Z,89.15
2023-03-29T19:29:46.145Z,88.95
2023-03-29T19:32:12.634Z,89.29
2023-03-29T19:34:39.153Z,89.75
2023-03-29T19:37:05.723Z,89.90
2023-03-29T19:39:32.214Z,90.38
2023-03-29T19:41:58.662Z,91.08
2023-03-29T19:44:25.243Z,91.38
2023-03-29T19:46:52.052Z,91.62
2023-03-29T19:49:18.685Z,92.07
2023-03-29T19:51:45.261Z,92.58
2023-03-29T19:54:14.747Z,92.74
2023-03-29T19:56:42.851Z,93.38
2023-03-29T19:59:11.120Z,93.32
2023-03-29T20:01:39.558Z,94.08
2023-03-29T20:04:06.233Z,94.57
2023-03-29T20:06:32.751Z,94.27
2023-03-29T20:08:59.173Z,94.64
2023-03-29T20:11:25.957Z,95.17
2023-03-29T20:13:52.489Z,95.32
2023-03-29T20:16:19.570Z,95.45
2023-03-29T20:18:46.456Z,95.94
2023-03-29T20:21:16.400Z,95.80
2023-03-29T20:23:43.268Z,96.37
2023-03-29T20:26:10.484Z,96.91
2023-03-29T20:28:37.616Z,97.29
2023-03-29T20:31:06.667Z,97.57
2023-03-29T20:33:33.574Z,98.22
2023-03-29T20:36:00.241Z,98.19
2023-03-29T20:38:26.772Z,98.16
2023-03-29T20:40:53.590Z,98.36
2023-03-29T20:43:20.206Z,98.77
2023-03-29T20:45:53.268Z,99.11
2023-03-29T20:48:22.954Z,99.49
2023-03-29T20:50:50.029Z,99.44
2023-03-29T20:53:18.114Z,99.54
2023-03-29T20:55:44.758Z,99.59
2023-03-29T20:58:11.505Z,99.45
2023-03-29T21:00:38.210Z,99.52
2023-03-29T21:03:04.892Z,99.88
2023-03-29T21:05:33.363Z,99.40
2023-03-29T21:08:00.594Z,99.43
2023-03-29T21:10:28.190Z,99.21
2023-03-29T21:12:54.843Z,99.38
2023-03-29T21:15:21.352Z,99.61
2023-03-29T21:17:47.910Z,99.46
2023-03-29T21:20:15.546Z,99.62
2023-03-29T21:22:45.094Z,99.59
2023-03-29T21:25:15.378Z,99.52
2023-03-29T21:27:42.590Z,99.50
2023-03-29T21:30:10.256Z,99.42
2023-03-29T21:32:37.076Z,99.34
2023-03-29T21:35:03.871Z,99.16
2023-03-29T21:37:30.668Z,99.25
2023-03-29T21:39:57.117Z,99.40
2023-03-29T21:42:23.640Z,99.43
2023-03-29T21:44:50.266Z,99.44
2023-03-29T21:47:16.744Z,99.47
2023-03-29T21:49:43.201Z,99.30
2023-03-29T21:52:09.710Z,99.34
2023-03-29T21:54:36.498Z,99.50
2023-03-29T21:57:03.128Z,99.60
2023-03-29T21:59:29.635Z,99.29
2023-03-29T22:01:56.207Z,99.58
2023-03-29T22:04:35.316Z,99.52
2023-03-29T22:07:03.689Z,99.59
2023-03-29T22:09:31.565Z,99.14
2023-03-29T22:11:59.610Z,99.26
2023-03-29T22:14:28.420Z,99.45
2023-03-29T22:16:54.870Z,99.16
2023-03-29T22:19:21.876Z,99.25
2023-03-29T22:21:48.651Z,98.65
2023-03-29T22:24:16.081Z,98.70
2023-03-29T22:26:44.858Z,98.81
2023-03-29T22:29:11.419Z,98.42
2023-03-29T22:31:39.304Z,98.33
2023-03-29T22:34:06.082Z,98.42
2023-03-29T22:36:36.042Z,97.83
2023-03-29T22:39:03.060Z,97.75
2023-03-29T22:41:29.532Z,97.46
2023-03-29T22:43:58.248Z,96.98
2023-03-29T22:46:25.368Z,97.14
2023-03-29T22:48:52.368Z,96.80
2023-03-29T22:51:19.946Z,95.97
2023-03-29T22:53:47.079Z,95.93
2023-03-29T22:56:14.493Z,95.50
2023-03-29T22:58:41.301Z,95.37
2023-03-29T23:01:08.116Z,94.60
2023-03-29T23:03:35.040Z,94.75
2023-03-29T23:06:04.460Z,94.30
2023-03-29T23:08:32.701Z,94.00
2023-03-29T23:10:59.552Z,93.90
2023-03-29T23:13:28.499Z,93.62
2023-03-29T23:15:58.737Z,93.15
2023-03-29T23:18:27.729Z,93.32
2023-03-29T23:20:56.546Z,92.96
2023-03-29T23:23:25.069Z,92.44
2023-03-29T23:25:52.630Z,92.19
2023-03-29T23:28:23.708Z,91.93
2023-03-29T23:31:02.699Z,91.71
2023-03-29T23:33:33.288Z,91.82
2023-03-29T23:36:00.882Z,91.20
2023-03-29T23:38:27.715Z,90.97
2023-03-29T23:41:00.695Z,90.63
2023-03-29T23:43:35.728Z,90.55
2023-03-29T23:46:05.565Z,90.05
2023-03-29T23:48:32.659Z,90.06
2023-03-29T23:50:59.073Z,89.34
2023-03-29T23:53:28.460Z,88.88
2023-03-29T23:56:05.792Z,88.44
2023-03-29T23:58:35.175Z,87.76
